sensor_id;sensor_type;location;lat;lon;timestamp;temperature;humidity
75961;SHT30;64644;48.914;2.254;2024-03-02T00:02:00;9.15;74.13
75961;SHT30;64644;48.914;2.254;2024-03-02T00:04:26;9.12;74.04
75961;SHT30;64644;48.914;2.254;2024-03-02T00:06:52;9.13;73.94
75961;SHT30;64644;48.914;2.254;2024-03-02T00:09:19;9.10;73.88
75961;SHT30;64644;48.914;2.254;2024-03-02T00:11:45;9.13;73.87
75961;SHT30;64644;48.914;2.254;2024-03-02T00:14:11;9.12;73.78
75961;SHT30;64644;48.914;2.254;2024-03-02T00:16:36;9.12;73.80
75961;SHT30;64644;48.914;2.254;2024-03-02T00:19:03;9.10;73.82
75961;SHT30;64644;48.914;2.254;2024-03-02T00:21:30;9.10;73.79
75961;SHT30;64644;48.914;2.254;2024-03-02T00:23:57;9.09;73.79
75961;SHT30;64644;48.914;2.254;2024-03-02T00:26:22;9.13;73.84
75961;SHT30;64644;48.914;2.254;2024-03-02T00:28:47;9.12;73.77
75961;SHT30;64644;48.914;2.254;2024-03-02T00:31:15;9.12;73.77
75961;SHT30;64644;48.914;2.254;2024-03-02T00:33:45;9.15;73.71
75961;SHT30;64644;48.914;2.254;2024-03-02T00:36:15;9.12;73.70
75961;SHT30;64644;48.914;2.254;2024-03-02T00:38:47;9.16;73.65
75961;SHT30;64644;48.914;2.254;2024-03-02T00:41:24;9.09;73.60
75961;SHT30;64644;48.914;2.254;2024-03-02T00:44:00;9.12;73.65
75961;SHT30;64644;48.914;2.254;2024-03-02T00:46:28;9.12;73.68
75961;SHT30;64644;48.914;2.254;2024-03-02T00:49:00;9.09;73.66
75961;SHT30;64644;48.914;2.254;2024-03-02T00:51:27;9.08;73.63
75961;SHT30;64644;48.914;2.254;2024-03-02T00:53:54;9.08;73.60
75961;SHT30;64644;48.914;2.254;2024-03-02T00:56:22;9.05;73.58
75961;SHT30;64644;48.914;2.254;2024-03-02T00:58:48;9.09;73.64
75961;SHT30;64644;48.914;2.254;2024-03-02T01:01:13;9.08;73.68
75961;SHT30;64644;48.914;2.254;2024-03-02T01:03:39;9.06;73.69
75961;SHT30;64644;48.914;2.254;2024-03-02T01:06:04;9.09;73.69
75961;SHT30;64644;48.914;2.254;2024-03-02T01:08:30;9.10;73.66
75961;SHT30;64644;48.914;2.254;2024-03-02T01:10:55;9.06;73.79
75961;SHT30;64644;48.914;2.254;2024-03-02T01:13:24;9.05;73.81
75961;SHT30;64644;48.914;2.254;2024-03-02T01:15:50;9.02;73.83
75961;SHT30;64644;48.914;2.254;2024-03-02T01:18:15;9.02;73.88
75961;SHT30;64644;48.914;2.254;2024-03-02T01:20:40;9.00;73.87
75961;SHT30;64644;48.914;2.254;2024-03-02T01:23:06;8.99;73.89
75961;SHT30;64644;48.914;2.254;2024-03-02T01:25:31;8.95;73.93
75961;SHT30;64644;48.914;2.254;2024-03-02T01:27:56;8.95;74.04
75961;SHT30;64644;48.914;2.254;2024-03-02T01:30:22;8.95;74.08
75961;SHT30;64644;48.914;2.254;2024-03-02T01:32:47;8.89;74.13
75961;SHT30;64644;48.914;2.254;2024-03-02T01:35:12;8.92;74.15
75961;SHT30;64644;48.914;2.254;2024-03-02T01:37:38;8.92;74.20
75961;SHT30;64644;48.914;2.254;2024-03-02T01:40:03;8.89;74.24
75961;SHT30;64644;48.914;2.254;2024-03-02T01:42:37;8.88;74.27
75961;SHT30;64644;48.914;2.254;2024-03-02T01:45:09;8.88;74.34
75961;SHT30;64644;48.914;2.254;2024-03-02T01:47:35;8.89;74.42
75961;SHT30;64644;48.914;2.254;2024-03-02T01:50:00;8.88;74.42
75961;SHT30;64644;48.914;2.254;2024-03-02T01:52:27;8.86;74.47
75961;SHT30;64644;48.914;2.254;2024-03-02T01:54:52;8.88;74.50
75961;SHT30;64644;48.914;2.254;2024-03-02T01:57:18;8.86;74.49
75961;SHT30;64644;48.914;2.254;2024-03-02T01:59:44;8.86;74.42
75961;SHT30;64644;48.914;2.254;2024-03-02T02:02:09;8.88;74.44
75961;SHT30;64644;48.914;2.254;2024-03-02T02:04:35;8.88;74.44
75961;SHT30;64644;48.914;2.254;2024-03-02T02:07:00;8.89;74.47
75961;SHT30;64644;48.914;2.254;2024-03-02T02:09:25;8.89;74.45
75961;SHT30;64644;48.914;2.254;2024-03-02T02:11:51;8.89;74.44
75961;SHT30;64644;48.914;2.254;2024-03-02T02:14:17;8.86;74.37
75961;SHT30;64644;48.914;2.254;2024-03-02T02:16:42;8.89;74.40
75961;SHT30;64644;48.914;2.254;2024-03-02T02:19:08;8.92;74.46
75961;SHT30;64644;48.914;2.254;2024-03-02T02:21:33;8.93;74.46
75961;SHT30;64644;48.914;2.254;2024-03-02T02:23:58;8.95;74.42
75961;SHT30;64644;48.914;2.254;2024-03-02T02:26:24;8.95;74.49
75961;SHT30;64644;48.914;2.254;2024-03-02T02:28:50;8.92;74.35
75961;SHT30;64644;48.914;2.254;2024-03-02T02:31:16;8.92;74.24
75961;SHT30;64644;48.914;2.254;2024-03-02T02:33:42;8.93;74.21
75961;SHT30;64644;48.914;2.254;2024-03-02T02:36:08;8.92;74.17
75961;SHT30;64644;48.914;2.254;2024-03-02T02:38:39;8.89;74.19
75961;SHT30;64644;48.914;2.254;2024-03-02T02:41:05;8.89;74.23
75961;SHT30;64644;48.914;2.254;2024-03-02T02:43:30;8.85;74.23
75961;SHT30;64644;48.914;2.254;2024-03-02T02:45:55;8.85;74.24
75961;SHT30;64644;48.914;2.254;2024-03-02T02:48:21;8.84;74.22
75961;SHT30;64644;48.914;2.254;2024-03-02T02:50:46;8.85;74.25
75961;SHT30;64644;48.914;2.254;2024-03-02T02:53:11;8.84;74.32
75961;SHT30;64644;48.914;2.254;2024-03-02T02:55:39;8.86;74.37
75961;SHT30;64644;48.914;2.254;2024-03-02T02:58:06;8.88;74.39
75961;SHT30;64644;48.914;2.254;2024-03-02T03:00:31;8.88;74.40
75961;SHT30;64644;48.914;2.254;2024-03-02T03:02:57;8.91;74.38
75961;SHT30;64644;48.914;2.254;2024-03-02T03:05:22;8.95;74.37
75961;SHT30;64644;48.914;2.254;2024-03-02T03:07:47;8.95;74.41
75961;SHT30;64644;48.914;2.254;2024-03-02T03:10:15;8.93;74.34
75961;SHT30;64644;48.914;2.254;2024-03-02T03:12:41;8.95;74.24
75961;SHT30;64644;48.914;2.254;2024-03-02T03:15:09;8.92;74.22
75961;SHT30;64644;48.914;2.254;2024-03-02T03:17:35;8.92;74.18
75961;SHT30;64644;48.914;2.254;2024-03-02T03:20:02;8.91;74.25
75961;SHT30;64644;48.914;2.254;2024-03-02T03:22:29;8.91;74.27
75961;SHT30;64644;48.914;2.254;2024-03-02T03:24:54;8.86;74.23
75961;SHT30;64644;48.914;2.254;2024-03-02T03:27:20;8.88;74.23
75961;SHT30;64644;48.914;2.254;2024-03-02T03:29:45;8.84;74.20
75961;SHT30;64644;48.914;2.254;2024-03-02T03:32:10;8.82;74.18
75961;SHT30;64644;48.914;2.254;2024-03-02T03:34:36;8.81;74.21
75961;SHT30;64644;48.914;2.254;2024-03-02T03:37:02;8.81;74.22
75961;SHT30;64644;48.914;2.254;2024-03-02T03:39:28;8.76;74.21
75961;SHT30;64644;48.914;2.254;2024-03-02T03:41:56;8.76;74.19
75961;SHT30;64644;48.914;2.254;2024-03-02T03:44:21;8.74;74.17
75961;SHT30;64644;48.914;2.254;2024-03-02T03:46:46;8.72;74.19
75961;SHT30;64644;48.914;2.254;2024-03-02T03:49:12;8.68;74.15
75961;SHT30;64644;48.914;2.254;2024-03-02T03:51:37;8.64;74.15
75961;SHT30;64644;48.914;2.254;2024-03-02T03:54:02;8.61;74.17
75961;SHT30;64644;48.914;2.254;2024-03-02T03:56:28;8.61;74.25
75961;SHT30;64644;48.914;2.254;2024-03-02T03:58:53;8.60;74.21
75961;SHT30;64644;48.914;2.254;2024-03-02T04:01:18;8.54;74.25
75961;SHT30;64644;48.914;2.254;2024-03-02T04:03:44;8.54;74.32
75961;SHT30;64644;48.914;2.254;2024-03-02T04:06:10;8.51;74.35
75961;SHT30;64644;48.914;2.254;2024-03-02T04:08:35;8.48;74.40
75961;SHT30;64644;48.914;2.254;2024-03-02T04:11:00;8.48;74.44
75961;SHT30;64644;48.914;2.254;2024-03-02T04:13:27;8.47;74.50
75961;SHT30;64644;48.914;2.254;2024-03-02T04:15:53;8.46;74.53
75961;SHT30;64644;48.914;2.254;2024-03-02T04:18:19;8.44;74.53
75961;SHT30;64644;48.914;2.254;2024-03-02T04:20:44;8.41;74.56
75961;SHT30;64644;48.914;2.254;2024-03-02T04:23:09;8.41;74.59
75961;SHT30;64644;48.914;2.254;2024-03-02T04:25:35;8.37;74.70
75961;SHT30;64644;48.914;2.254;2024-03-02T04:28:01;8.34;74.73
75961;SHT30;64644;48.914;2.254;2024-03-02T04:30:26;8.33;74.75
75961;SHT30;64644;48.914;2.254;2024-03-02T04:32:52;8.32;74.83
75961;SHT30;64644;48.914;2.254;2024-03-02T04:35:17;8.29;74.87
75961;SHT30;64644;48.914;2.254;2024-03-02T04:37:42;8.29;74.86
75961;SHT30;64644;48.914;2.254;2024-03-02T04:40:08;8.29;74.88
75961;SHT30;64644;48.914;2.254;2024-03-02T04:42:34;8.26;74.85
75961;SHT30;64644;48.914;2.254;2024-03-02T04:44:59;8.23;74.87
75961;SHT30;64644;48.914;2.254;2024-03-02T04:47:25;8.20;74.89
75961;SHT30;64644;48.914;2.254;2024-03-02T04:49:50;8.22;74.93
75961;SHT30;64644;48.914;2.254;2024-03-02T04:52:16;8.22;74.98
75961;SHT30;64644;48.914;2.254;2024-03-02T04:54:41;8.22;74.92
75961;SHT30;64644;48.914;2.254;2024-03-02T04:57:25;8.20;74.96
75961;SHT30;64644;48.914;2.254;2024-03-02T04:59:50;8.23;74.97
75961;SHT30;64644;48.914;2.254;2024-03-02T05:02:16;8.22;74.93
75961;SHT30;64644;48.914;2.254;2024-03-02T05:04:41;8.20;74.94
75961;SHT30;64644;48.914;2.254;2024-03-02T05:07:07;8.20;74.88
75961;SHT30;64644;48.914;2.254;2024-03-02T05:09:32;8.20;74.87
75961;SHT30;64644;48.914;2.254;2024-03-02T05:11:58;8.19;74.85
75961;SHT30;64644;48.914;2.254;2024-03-02T05:14:54;8.17;74.90
75961;SHT30;64644;48.914;2.254;2024-03-02T05:17:20;8.17;74.90
75961;SHT30;64644;48.914;2.254;2024-03-02T05:19:45;8.19;74.92
75961;SHT30;64644;48.914;2.254;2024-03-02T05:22:10;8.19;74.93
75961;SHT30;64644;48.914;2.254;2024-03-02T05:24:35;8.19;74.96
75961;SHT30;64644;48.914;2.254;2024-03-02T05:27:02;8.16;74.95
75961;SHT30;64644;48.914;2.254;2024-03-02T05:29:27;8.19;75.00
75961;SHT30;64644;48.914;2.254;2024-03-02T05:31:52;8.19;75.04
75961;SHT30;64644;48.914;2.254;2024-03-02T05:34:17;8.22;75.05
75961;SHT30;64644;48.914;2.254;2024-03-02T05:36:43;8.23;75.10
75961;SHT30;64644;48.914;2.254;2024-03-02T05:39:09;8.23;75.05
75961;SHT30;64644;48.914;2.254;2024-03-02T05:41:35;8.22;75.07
75961;SHT30;64644;48.914;2.254;2024-03-02T05:44:01;8.23;75.07
75961;SHT30;64644;48.914;2.254;2024-03-02T05:46:27;8.23;75.03
75961;SHT30;64644;48.914;2.254;2024-03-02T05:48:52;8.25;75.10
75961;SHT30;64644;48.914;2.254;2024-03-02T05:51:17;8.26;75.07
75961;SHT30;64644;48.914;2.254;2024-03-02T05:53:43;8.26;75.14
75961;SHT30;64644;48.914;2.254;2024-03-02T05:56:08;8.26;75.14
75961;SHT30;64644;48.914;2.254;2024-03-02T05:58:34;8.29;75.17
75961;SHT30;64644;48.914;2.254;2024-03-02T06:01:23;8.32;75.28
75961;SHT30;64644;48.914;2.254;2024-03-02T06:03:54;8.33;75.29
75961;SHT30;64644;48.914;2.254;2024-03-02T06:06:19;8.34;75.31
75961;SHT30;64644;48.914;2.254;2024-03-02T06:08:46;8.36;75.22
75961;SHT30;64644;48.914;2.254;2024-03-02T06:11:11;8.37;75.25
75961;SHT30;64644;48.914;2.254;2024-03-02T06:13:36;8.40;75.24
75961;SHT30;64644;48.914;2.254;2024-03-02T06:16:02;8.40;75.25
75961;SHT30;64644;48.914;2.254;2024-03-02T06:18:27;8.40;75.26
75961;SHT30;64644;48.914;2.254;2024-03-02T06:20:53;8.39;75.31
75961;SHT30;64644;48.914;2.254;2024-03-02T06:23:18;8.41;75.31
75961;SHT30;64644;48.914;2.254;2024-03-02T06:25:44;8.41;75.31
75961;SHT30;64644;48.914;2.254;2024-03-02T06:28:09;8.43;75.32
75961;SHT30;64644;48.914;2.254;2024-03-02T06:30:34;8.46;75.37
75961;SHT30;64644;48.914;2.254;2024-03-02T06:33:00;8.47;75.37
75961;SHT30;64644;48.914;2.254;2024-03-02T06:35:25;8.50;75.44
75961;SHT30;64644;48.914;2.254;2024-03-02T06:37:51;8.53;75.41
75961;SHT30;64644;48.914;2.254;2024-03-02T06:40:16;8.56;75.46
75961;SHT30;64644;48.914;2.254;2024-03-02T06:42:42;8.57;75.49
75961;SHT30;64644;48.914;2.254;2024-03-02T06:45:07;8.60;75.51
75961;SHT30;64644;48.914;2.254;2024-03-02T06:47:33;8.61;75.46
75961;SHT30;64644;48.914;2.254;2024-03-02T06:49:58;8.61;75.47
75961;SHT30;64644;48.914;2.254;2024-03-02T06:52:24;8.61;75.44
75961;SHT30;64644;48.914;2.254;2024-03-02T06:54:49;8.67;75.47
75961;SHT30;64644;48.914;2.254;2024-03-02T06:57:14;8.69;75.47
75961;SHT30;64644;48.914;2.254;2024-03-02T06:59:42;8.74;75.48
75961;SHT30;64644;48.914;2.254;2024-03-02T07:02:07;8.74;75.41
75961;SHT30;64644;48.914;2.254;2024-03-02T07:04:34;8.75;75.41
75961;SHT30;64644;48.914;2.254;2024-03-02T07:06:59;8.82;75.40
75961;SHT30;64644;48.914;2.254;2024-03-02T07:09:24;8.84;75.38
75961;SHT30;64644;48.914;2.254;2024-03-02T07:11:51;8.86;75.31
75961;SHT30;64644;48.914;2.254;2024-03-02T07:14:17;8.88;75.33
75961;SHT30;64644;48.914;2.254;2024-03-02T07:16:42;8.93;75.38
75961;SHT30;64644;48.914;2.254;2024-03-02T07:19:08;8.96;75.39
75961;SHT30;64644;48.914;2.254;2024-03-02T07:21:34;9.00;75.30
75961;SHT30;64644;48.914;2.254;2024-03-02T07:23:59;9.00;75.30
75961;SHT30;64644;48.914;2.254;2024-03-02T07:26:25;9.06;75.29
75961;SHT30;64644;48.914;2.254;2024-03-02T07:28:51;9.09;75.24
75961;SHT30;64644;48.914;2.254;2024-03-02T07:31:16;9.13;75.20
75961;SHT30;64644;48.914;2.254;2024-03-02T07:33:45;9.19;75.21
75961;SHT30;64644;48.914;2.254;2024-03-02T07:36:12;9.24;75.15
75961;SHT30;64644;48.914;2.254;2024-03-02T07:38:37;9.28;75.04
75961;SHT30;64644;48.914;2.254;2024-03-02T07:41:03;9.34;74.97
75961;SHT30;64644;48.914;2.254;2024-03-02T07:43:30;9.40;74.98
75961;SHT30;64644;48.914;2.254;2024-03-02T07:45:56;9.48;74.90
75961;SHT30;64644;48.914;2.254;2024-03-02T07:48:22;9.55;74.77
75961;SHT30;64644;48.914;2.254;2024-03-02T07:50:47;9.58;74.73
75961;SHT30;64644;48.914;2.254;2024-03-02T07:53:13;9.64;74.63
75961;SHT30;64644;48.914;2.254;2024-03-02T07:55:39;9.68;74.61
75961;SHT30;64644;48.914;2.254;2024-03-02T07:58:06;9.72;74.56
75961;SHT30;64644;48.914;2.254;2024-03-02T08:00:31;9.79;74.44
75961;SHT30;64644;48.914;2.254;2024-03-02T08:02:57;9.82;74.40
75961;SHT30;64644;48.914;2.254;2024-03-02T08:05:22;9.85;74.31
75961;SHT30;64644;48.914;2.254;2024-03-02T08:07:48;9.89;74.20
75961;SHT30;64644;48.914;2.254;2024-03-02T08:10:17;9.86;74.09
75961;SHT30;64644;48.914;2.254;2024-03-02T08:12:43;9.88;74.09
75961;SHT30;64644;48.914;2.254;2024-03-02T08:15:08;9.88;74.06
75961;SHT30;64644;48.914;2.254;2024-03-02T08:17:34;9.89;74.05
75961;SHT30;64644;48.914;2.254;2024-03-02T08:19:59;9.96;74.16
75961;SHT30;64644;48.914;2.254;2024-03-02T08:22:24;9.98;74.12
75961;SHT30;64644;48.914;2.254;2024-03-02T08:24:53;9.95;74.12
75961;SHT30;64644;48.914;2.254;2024-03-02T08:27:19;9.95;74.14
75961;SHT30;64644;48.914;2.254;2024-03-02T08:29:45;9.93;74.14
75961;SHT30;64644;48.914;2.254;2024-03-02T08:32:10;9.93;74.24
75961;SHT30;64644;48.914;2.254;2024-03-02T08:34:35;9.93;74.36
75961;SHT30;64644;48.914;2.254;2024-03-02T08:37:02;9.93;74.48
75961;SHT30;64644;48.914;2.254;2024-03-02T08:39:27;9.95;74.62
75961;SHT30;64644;48.914;2.254;2024-03-02T08:41:53;9.92;74.64
75961;SHT30;64644;48.914;2.254;2024-03-02T08:44:19;9.92;74.68
75961;SHT30;64644;48.914;2.254;2024-03-02T08:46:44;9.95;74.81
75961;SHT30;64644;48.914;2.254;2024-03-02T08:49:10;9.96;74.86
75961;SHT30;64644;48.914;2.254;2024-03-02T08:51:35;9.96;74.82
75961;SHT30;64644;48.914;2.254;2024-03-02T08:54:01;9.99;74.78
75961;SHT30;64644;48.914;2.254;2024-03-02T08:56:26;10.00;74.78
75961;SHT30;64644;48.914;2.254;2024-03-02T08:58:52;10.00;74.71
75961;SHT30;64644;48.914;2.254;2024-03-02T09:01:18;10.02;74.69
75961;SHT30;64644;48.914;2.254;2024-03-02T09:03:44;10.00;74.64
75961;SHT30;64644;48.914;2.254;2024-03-02T09:06:11;10.00;74.68
75961;SHT30;64644;48.914;2.254;2024-03-02T09:08:36;10.03;74.69
75961;SHT30;64644;48.914;2.254;2024-03-02T09:11:02;10.03;74.66
75961;SHT30;64644;48.914;2.254;2024-03-02T09:13:28;10.06;74.67
75961;SHT30;64644;48.914;2.254;2024-03-02T09:15:54;10.10;74.79
75961;SHT30;64644;48.914;2.254;2024-03-02T09:18:19;10.10;74.85
75961;SHT30;64644;48.914;2.254;2024-03-02T09:20:45;10.12;74.84
75961;SHT30;64644;48.914;2.254;2024-03-02T09:23:11;10.09;74.72
75961;SHT30;64644;48.914;2.254;2024-03-02T09:25:36;10.09;74.70
75961;SHT30;64644;48.914;2.254;2024-03-02T09:28:02;10.07;74.72
75961;SHT30;64644;48.914;2.254;2024-03-02T09:30:28;10.10;74.64
75961;SHT30;64644;48.914;2.254;2024-03-02T09:32:53;10.12;74.67
75961;SHT30;64644;48.914;2.254;2024-03-02T09:35:18;10.13;74.76
75961;SHT30;64644;48.914;2.254;2024-03-02T09:37:44;10.13;74.79
75961;SHT30;64644;48.914;2.254;2024-03-02T09:40:10;10.17;74.87
75961;SHT30;64644;48.914;2.254;2024-03-02T09:42:35;10.18;74.96
75961;SHT30;64644;48.914;2.254;2024-03-02T09:45:01;10.17;74.88
75961;SHT30;64644;48.914;2.254;2024-03-02T09:47:27;10.17;74.98
75961;SHT30;64644;48.914;2.254;2024-03-02T09:49:52;10.16;75.03
75961;SHT30;64644;48.914;2.254;2024-03-02T09:52:18;10.14;75.09
75961;SHT30;64644;48.914;2.254;2024-03-02T09:54:43;10.18;75.23
75961;SHT30;64644;48.914;2.254;2024-03-02T09:57:09;10.23;75.33
75961;SHT30;64644;48.914;2.254;2024-03-02T09:59:34;10.29;75.45
75961;SHT30;64644;48.914;2.254;2024-03-02T10:02:02;10.40;75.58
75961;SHT30;64644;48.914;2.254;2024-03-02T10:04:29;10.45;75.57
75961;SHT30;64644;48.914;2.254;2024-03-02T10:07:18;10.54;75.59
75961;SHT30;64644;48.914;2.254;2024-03-02T10:09:49;10.55;75.49
75961;SHT30;64644;48.914;2.254;2024-03-02T10:12:17;10.57;75.48
75961;SHT30;64644;48.914;2.254;2024-03-02T10:14:43;10.60;75.43
75961;SHT30;64644;48.914;2.254;2024-03-02T10:17:10;10.60;75.44
75961;SHT30;64644;48.914;2.254;2024-03-02T10:19:36;10.58;75.48
75961;SHT30;64644;48.914;2.254;2024-03-02T10:22:05;10.58;75.63
75961;SHT30;64644;48.914;2.254;2024-03-02T10:27:07;10.58;75.58
75961;SHT30;64644;48.914;2.254;2024-03-02T10:29:32;10.61;75.62
75961;SHT30;64644;48.914;2.254;2024-03-02T10:31:58;10.64;75.69
75961;SHT30;64644;48.914;2.254;2024-03-02T10:34:27;10.65;75.65
75961;SHT30;64644;48.914;2.254;2024-03-02T10:36:52;10.67;75.74
75961;SHT30;64644;48.914;2.254;2024-03-02T10:39:18;10.67;75.79
75961;SHT30;64644;48.914;2.254;2024-03-02T10:41:43;10.69;75.80
75961;SHT30;64644;48.914;2.254;2024-03-02T10:44:10;10.72;75.84
75961;SHT30;64644;48.914;2.254;2024-03-02T10:46:37;10.78;75.95
75961;SHT30;64644;48.914;2.254;2024-03-02T10:49:04;10.83;75.96
75961;SHT30;64644;48.914;2.254;2024-03-02T10:51:31;10.86;75.86
75961;SHT30;64644;48.914;2.254;2024-03-02T10:54:01;10.93;75.94
75961;SHT30;64644;48.914;2.254;2024-03-02T10:56:34;11.02;75.95
75961;SHT30;64644;48.914;2.254;2024-03-02T11:01:47;11.09;75.68
75961;SHT30;64644;48.914;2.254;2024-03-02T11:04:13;11.06;75.68
75961;SHT30;64644;48.914;2.254;2024-03-02T11:06:43;11.05;75.65
75961;SHT30;64644;48.914;2.254;2024-03-02T11:09:11;11.02;75.50
75961;SHT30;64644;48.914;2.254;2024-03-02T11:11:43;11.02;75.40
75961;SHT30;64644;48.914;2.254;2024-03-02T11:14:14;11.03;75.31
75961;SHT30;64644;48.914;2.254;2024-03-02T11:16:42;10.96;75.23
75961;SHT30;64644;48.914;2.254;2024-03-02T11:19:12;11.02;75.34
75961;SHT30;64644;48.914;2.254;2024-03-02T11:21:38;11.09;75.38
75961;SHT30;64644;48.914;2.254;2024-03-02T11:26:49;11.14;75.04
75961;SHT30;64644;48.914;2.254;2024-03-02T11:32:01;11.19;74.50
75961;SHT30;64644;48.914;2.254;2024-03-02T11:34:36;11.20;74.27
75961;SHT30;64644;48.914;2.254;2024-03-02T11:37:05;11.17;74.09
75961;SHT30;64644;48.914;2.254;2024-03-02T11:39:30;11.17;74.08
75961;SHT30;64644;48.914;2.254;2024-03-02T11:41:56;11.22;73.82
75961;SHT30;64644;48.914;2.254;2024-03-02T11:44:26;11.20;73.73
75961;SHT30;64644;48.914;2.254;2024-03-02T11:46:59;11.26;73.73
75961;SHT30;64644;48.914;2.254;2024-03-02T11:49:37;11.27;73.46
75961;SHT30;64644;48.914;2.254;2024-03-02T11:52:06;11.23;73.26
75961;SHT30;64644;48.914;2.254;2024-03-02T11:54:36;11.22;73.05
75961;SHT30;64644;48.914;2.254;2024-03-02T11:57:05;11.24;72.98
75961;SHT30;64644;48.914;2.254;2024-03-02T11:59:31;11.27;72.93
75961;SHT30;64644;48.914;2.254;2024-03-02T12:01:57;11.27;72.86
75961;SHT30;64644;48.914;2.254;2024-03-02T12:04:23;11.23;72.72
75961;SHT30;64644;48.914;2.254;2024-03-02T12:07:00;11.27;72.86
75961;SHT30;64644;48.914;2.254;2024-03-02T12:09:26;11.34;72.88
75961;SHT30;64644;48.914;2.254;2024-03-02T12:12:04;11.37;72.83
75961;SHT30;64644;48.914;2.254;2024-03-02T12:14:31;11.38;72.89
75961;SHT30;64644;48.914;2.254;2024-03-02T12:16:57;11.40;72.92
75961;SHT30;64644;48.914;2.254;2024-03-02T12:19:24;11.42;72.98
75961;SHT30;64644;48.914;2.254;2024-03-02T12:21:50;11.42;73.02
75961;SHT30;64644;48.914;2.254;2024-03-02T12:24:15;11.44;72.98
75961;SHT30;64644;48.914;2.254;2024-03-02T12:26:42;11.38;72.90
75961;SHT30;64644;48.914;2.254;2024-03-02T12:29:07;11.33;72.69
75961;SHT30;64644;48.914;2.254;2024-03-02T12:31:32;11.28;72.61
75961;SHT30;64644;48.914;2.254;2024-03-02T12:33:58;11.28;72.77
75961;SHT30;64644;48.914;2.254;2024-03-02T12:36:24;11.30;72.97
75961;SHT30;64644;48.914;2.254;2024-03-02T12:38:52;11.28;72.90
75961;SHT30;64644;48.914;2.254;2024-03-02T12:41:18;11.30;72.90
75961;SHT30;64644;48.914;2.254;2024-03-02T12:43:43;11.24;73.38
75961;SHT30;64644;48.914;2.254;2024-03-02T12:46:09;11.22;73.23
75961;SHT30;64644;48.914;2.254;2024-03-02T12:48:35;11.27;73.21
75961;SHT30;64644;48.914;2.254;2024-03-02T12:51:01;11.24;73.06
75961;SHT30;64644;48.914;2.254;2024-03-02T12:53:26;11.20;73.01
75961;SHT30;64644;48.914;2.254;2024-03-02T12:55:52;11.22;72.96
75961;SHT30;64644;48.914;2.254;2024-03-02T12:58:22;11.20;72.84
75961;SHT30;64644;48.914;2.254;2024-03-02T13:00:47;11.20;72.88
75961;SHT30;64644;48.914;2.254;2024-03-02T13:03:13;11.20;72.97
75961;SHT30;64644;48.914;2.254;2024-03-02T13:05:39;11.23;72.97
75961;SHT30;64644;48.914;2.254;2024-03-02T13:08:06;11.27;72.95
75961;SHT30;64644;48.914;2.254;2024-03-02T13:10:32;11.28;72.99
75961;SHT30;64644;48.914;2.254;2024-03-02T13:12:57;11.31;73.06
75961;SHT30;64644;48.914;2.254;2024-03-02T13:15:23;11.33;73.20
75961;SHT30;64644;48.914;2.254;2024-03-02T13:17:48;11.31;72.99
75961;SHT30;64644;48.914;2.254;2024-03-02T13:20:14;11.28;72.84
75961;SHT30;64644;48.914;2.254;2024-03-02T13:22:40;11.23;72.85
75961;SHT30;64644;48.914;2.254;2024-03-02T13:25:05;11.24;73.12
75961;SHT30;64644;48.914;2.254;2024-03-02T13:27:33;11.24;72.99
75961;SHT30;64644;48.914;2.254;2024-03-02T13:29:58;11.27;72.99
75961;SHT30;64644;48.914;2.254;2024-03-02T13:32:24;11.24;72.94
75961;SHT30;64644;48.914;2.254;2024-03-02T13:34:51;11.23;72.85
75961;SHT30;64644;48.914;2.254;2024-03-02T13:37:16;11.23;72.89
75961;SHT30;64644;48.914;2.254;2024-03-02T13:39:41;11.24;73.00
75961;SHT30;64644;48.914;2.254;2024-03-02T13:42:11;11.22;73.05
75961;SHT30;64644;48.914;2.254;2024-03-02T13:44:39;11.24;73.26
75961;SHT30;64644;48.914;2.254;2024-03-02T13:47:05;11.26;73.39
75961;SHT30;64644;48.914;2.254;2024-03-02T13:49:31;11.24;73.41
75961;SHT30;64644;48.914;2.254;2024-03-02T13:52:02;11.30;73.48
75961;SHT30;64644;48.914;2.254;2024-03-02T13:54:29;11.34;73.44
75961;SHT30;64644;48.914;2.254;2024-03-02T13:56:58;11.31;73.73
75961;SHT30;64644;48.914;2.254;2024-03-02T13:59:23;11.30;73.49
75961;SHT30;64644;48.914;2.254;2024-03-02T14:01:49;11.34;73.53
75961;SHT30;64644;48.914;2.254;2024-03-02T14:04:15;11.34;73.76
75961;SHT30;64644;48.914;2.254;2024-03-02T14:06:40;11.40;73.94
75961;SHT30;64644;48.914;2.254;2024-03-02T14:09:08;11.40;73.99
75961;SHT30;64644;48.914;2.254;2024-03-02T14:11:33;11.41;74.10
75961;SHT30;64644;48.914;2.254;2024-03-02T14:13:59;11.42;74.11
75961;SHT30;64644;48.914;2.254;2024-03-02T14:16:25;11.45;74.09
75961;SHT30;64644;48.914;2.254;2024-03-02T14:18:50;11.48;74.15
75961;SHT30;64644;48.914;2.254;2024-03-02T14:21:15;11.45;74.15
75961;SHT30;64644;48.914;2.254;2024-03-02T14:23:41;11.50;74.02
75961;SHT30;64644;48.914;2.254;2024-03-02T14:26:06;11.45;73.90
75961;SHT30;64644;48.914;2.254;2024-03-02T14:28:31;11.41;73.90
75961;SHT30;64644;48.914;2.254;2024-03-02T14:30:57;11.40;74.09
75961;SHT30;64644;48.914;2.254;2024-03-02T14:33:24;11.40;74.33
75961;SHT30;64644;48.914;2.254;2024-03-02T14:35:49;11.40;74.40
75961;SHT30;64644;48.914;2.254;2024-03-02T14:38:14;11.40;74.38
75961;SHT30;64644;48.914;2.254;2024-03-02T14:40:40;11.37;74.44
75961;SHT30;64644;48.914;2.254;2024-03-02T14:43:05;11.34;74.33
75961;SHT30;64644;48.914;2.254;2024-03-02T14:45:31;11.30;74.29
75961;SHT30;64644;48.914;2.254;2024-03-02T14:47:56;11.26;74.28
75961;SHT30;64644;48.914;2.254;2024-03-02T14:50:25;11.26;74.36
75961;SHT30;64644;48.914;2.254;2024-03-02T14:52:51;11.23;74.40
75961;SHT30;64644;48.914;2.254;2024-03-02T14:55:16;11.27;74.47
75961;SHT30;64644;48.914;2.254;2024-03-02T14:57:41;11.26;74.57
75961;SHT30;64644;48.914;2.254;2024-03-02T15:00:07;11.26;74.66
75961;SHT30;64644;48.914;2.254;2024-03-02T15:02:33;11.23;74.70
75961;SHT30;64644;48.914;2.254;2024-03-02T15:04:59;11.23;74.65
75961;SHT30;64644;48.914;2.254;2024-03-02T15:07:25;11.20;74.57
75961;SHT30;64644;48.914;2.254;2024-03-02T15:09:50;11.20;74.75
75961;SHT30;64644;48.914;2.254;2024-03-02T15:12:16;11.24;74.69
75961;SHT30;64644;48.914;2.254;2024-03-02T15:14:43;11.22;74.70
75961;SHT30;64644;48.914;2.254;2024-03-02T15:17:14;11.22;74.77
75961;SHT30;64644;48.914;2.254;2024-03-02T15:19:43;11.23;74.89
75961;SHT30;64644;48.914;2.254;2024-03-02T15:22:09;11.23;74.80
75961;SHT30;64644;48.914;2.254;2024-03-02T15:24:34;11.23;74.70
75961;SHT30;64644;48.914;2.254;2024-03-02T15:27:00;11.27;74.85
75961;SHT30;64644;48.914;2.254;2024-03-02T15:29:29;11.28;75.08
75961;SHT30;64644;48.914;2.254;2024-03-02T15:31:56;11.30;75.30
75961;SHT30;64644;48.914;2.254;2024-03-02T15:34:21;11.27;74.91
75961;SHT30;64644;48.914;2.254;2024-03-02T15:36:48;11.23;74.66
75961;SHT30;64644;48.914;2.254;2024-03-02T15:39:14;11.17;74.57
75961;SHT30;64644;48.914;2.254;2024-03-02T15:41:39;11.17;74.69
75961;SHT30;64644;48.914;2.254;2024-03-02T15:44:07;11.17;74.70
75961;SHT30;64644;48.914;2.254;2024-03-02T15:46:33;11.17;74.72